Metabetchouan, Canada
Current Conditions -  °F | °C
As of 4:00 AM on Thursday 27 Nov 2014 (Local Time) from CYRJ Reporting Station
Few Clouds Few Clouds  
Wind Chill: -1°   Ceiling: Unl
Heat Index: 12°   Visibility: 25mi
Dew Point:   Wind: 10mph
Humidity: 79%   Direction: 320°NW
Pressure: 30.1"   Gusts: NA
Location:  48.43°N, 71.87°W
Report Text: CYRJ 270900Z 32009KT 25SM FEW030 M11/M14 A3010 RMK SC1 SLP206
Loading
Personal Weather Stations






























Interactive Weather Map New forecast layout! Learn more

10-Day Weather Forecast

Advertisements
Track Severe Weather on mobile